Terminal Aerodrome Forecast
Issued by NWS

Home | Current Version | Previous Version | Text Only | Print | Product List | Glossary On
Versions: 1 2 3 4 5 6 7 8 9 10 11 12
000
FTUS46 KPDT 270500
TAFRDM
TAF
KRDM 270531Z 2706/2806 16005KT P6SM SCT200
     FM271000 16004KT 6SM BR SCT005
     FM271600 VRB04KT P6SM FEW150 BKN200
     FM280000 31005KT P6SM BKN100 OVC150=

USA.gov is the U.S. government's official web portal to all federal, state and local government web resources and services.